This demonstration page uses our WeatherBlox Daily Observations layout. Learn more.

Left ArrowRight Arrow

36.17497, -115.13722

Hourly Observations for August 13, 2016

Temp ( °F °C ) Dew Point ( °F °C ) Humidity (%) Winds ( mph kmh ) Pressure ( in mb ) Visibility ( mi km ) Precip ( " mm )
12:53 am 00:53 Clear 87 30.6 40 4.4 19 19 WNW 3 6 29.88 1012 10 16.0934 0 0
1:53 am 01:53 Clear 84 28.9 39 3.9 20 20 NNW 6 9 29.87 1012 10 16.0934 0 0
2:53 am 02:53 Clear 85 29.4 39 3.9 20 20 NW 5 7 29.87 1012 10 16.0934 0 0
3:53 am 03:53 Clear 85 29.4 38 3.3 19 19 WNW 7 11 29.88 1012 10 16.0934 0 0
4:53 am 04:53 Clear 84 28.9 30 -1.1 14 14 NW 12 19 29.88 1012 10 16.0934 0 0
5:53 am 05:53 Clear 82 27.8 32 0 16 16 WNW 7 11 29.9 1013 10 16.0934 0 0
6:53 am 06:53 Sunny 83 28.3 32 0 16 16 WNW 7 11 29.92 1013 10 16.0934 0 0
7:53 am 07:53 Sunny 87 30.6 34 1.1 15 15 N 5 7 29.93 1014 10 16.0934 0 0
8:53 am 08:53 Sunny 92 33.3 30 -1.1 11 11 NNW 8 13 29.93 1014 10 16.0934 0 0
9:53 am 09:53 Sunny 96 35.6 32 0 10 10 N 6 9 29.93 1014 10 16.0934 0 0
10:53 am 10:53 Sunny 98 36.7 34 1.1 11 11 Calm 29.92 1013 10 16.0934 0 0
11:53 am 11:53 Sunny 100 37.8 33 0.6 10 10 Calm 29.91 1013 10 16.0934 0 0
12:53 pm 12:53 Sunny 103 39.4 33 0.6 9 9 ESE 8 13 29.89 1012 10 16.0934 0 0
1:53 pm 13:53 Sunny 105 40.6 34 1.1 8 8 Calm 29.86 1011 10 16.0934 0 0
2:53 pm 14:53 Sunny 104 40 34 1.1 9 9 Calm 29.83 1010 10 16.0934 0 0
3:53 pm 15:53 Sunny 105 40.6 32 0 8 8 Calm 29.81 1010 10 16.0934 0 0
4:53 pm 16:53 Sunny 106 41.1 31 -0.6 7 7 Calm 29.8 1009 10 16.0934 0 0
5:53 pm 17:53 Sunny 107 41.7 32 0 7 7 N 5 7 29.78 1008 10 16.0934 0 0
6:53 pm 18:53 Sunny 104 40 33 0.6 8 8 SE 5 7 29.78 1008 10 16.0934 0 0
7:53 pm 19:53 Clear 101 38.3 30 -1.1 8 8 E 6 9 29.79 1009 10 16.0934 0 0
8:53 pm 20:53 Clear 99 37.2 30 -1.1 9 9 Calm 29.8 1009 10 16.0934 0 0
9:53 pm 21:53 Clear 95 35 39 3.9 14 14 W 6 9 29.8 1009 10 16.0934 0 0
10:53 pm 22:53 Clear 92 33.3 39 3.9 16 16 NNW 5 7 29.8 1009 10 16.0934 0 0
11:53 pm 23:53 Clear 89 31.7 35 1.7 15 15 N 6 9 29.8 1009 10 16.0934 0 0

Powered by AerisWeather